createdAt,value
2019-06-01T00:00:16.512Z,16.49
2019-06-01T00:01:16.455Z,16.52
2019-06-01T00:02:16.454Z,16.39
2019-06-01T00:03:16.435Z,16.37
2019-06-01T00:04:16.429Z,16.34
2019-06-01T00:05:16.439Z,16.36
2019-06-01T00:06:16.398Z,16.34
2019-06-01T00:07:16.389Z,16.32
2019-06-01T00:08:16.413Z,16.32
2019-06-01T00:09:16.391Z,16.25
2019-06-01T00:10:16.402Z,16.29
2019-06-01T00:11:16.341Z,16.22
2019-06-01T00:12:16.332Z,16.25
2019-06-01T00:13:16.331Z,16.14
2019-06-01T00:14:16.307Z,16.24
2019-06-01T00:15:16.364Z,16.13
2019-06-01T00:16:16.291Z,16.17
2019-06-01T00:17:16.279Z,16.13
2019-06-01T00:18:16.265Z,16.16
2019-06-01T00:19:16.264Z,16.10
2019-06-01T00:20:16.265Z,16.13
2019-06-01T00:21:16.253Z,16.08
2019-06-01T00:22:16.239Z,16.06
2019-06-01T00:23:16.224Z,16.03
2019-06-01T00:24:16.211Z,16.16
2019-06-01T00:25:16.204Z,16.03
2019-06-01T00:26:16.185Z,16.03
2019-06-01T00:27:16.172Z,16.03
2019-06-01T00:28:16.158Z,16.06
2019-06-01T00:29:16.186Z,15.98
2019-06-01T00:30:26.737Z,16.00
2019-06-01T00:31:17.129Z,16.00
2019-06-01T00:32:16.110Z,16.03
2019-06-01T00:33:16.098Z,16.10
2019-06-01T00:34:16.091Z,16.06
2019-06-01T00:35:16.119Z,16.02
2019-06-01T00:36:16.124Z,15.99
2019-06-01T00:37:16.081Z,15.93
2019-06-01T00:38:16.064Z,15.93
2019-06-01T00:39:16.047Z,15.93
2019-06-01T00:40:16.046Z,15.90
2019-06-01T00:41:16.047Z,15.93
2019-06-01T00:42:16.022Z,15.88
2019-06-01T00:43:15.997Z,15.81
2019-06-01T00:44:15.998Z,15.84
2019-06-01T00:45:16.034Z,15.95
2019-06-01T00:46:15.985Z,15.84
2019-06-01T00:47:15.980Z,15.83
2019-06-01T00:48:15.970Z,15.87
2019-06-01T00:49:15.938Z,15.88
2019-06-01T00:50:15.941Z,15.90
2019-06-01T00:51:15.934Z,15.87
2019-06-01T00:52:15.901Z,15.83
2019-06-01T00:53:15.891Z,15.81
2019-06-01T00:54:15.870Z,15.78
2019-06-01T00:55:15.907Z,15.70
2019-06-01T00:56:15.858Z,15.76
2019-06-01T00:57:15.843Z,15.77
2019-06-01T00:58:15.836Z,15.70
2019-06-01T00:59:15.821Z,15.69
2019-06-01T01:00:15.834Z,15.65
2019-06-01T01:01:15.790Z,15.63
2019-06-01T01:02:15.780Z,15.63
2019-06-01T01:03:15.782Z,15.62
2019-06-01T01:04:15.758Z,15.62
2019-06-01T01:05:15.769Z,15.59
2019-06-01T01:06:15.745Z,15.68
2019-06-01T01:07:15.762Z,15.65
2019-06-01T01:08:15.716Z,15.60
2019-06-01T01:09:15.696Z,15.59
2019-06-01T01:10:15.725Z,15.59
2019-06-01T01:11:15.690Z,15.63
2019-06-01T01:12:15.673Z,15.62
2019-06-01T01:13:15.664Z,15.58
2019-06-01T01:14:15.661Z,15.50
2019-06-01T01:15:15.686Z,15.52
2019-06-01T01:16:15.642Z,15.51
2019-06-01T01:17:15.613Z,15.56
2019-06-01T01:18:15.607Z,15.52
2019-06-01T01:19:15.594Z,15.43
2019-06-01T01:20:15.613Z,15.44
2019-06-01T01:21:15.575Z,15.48
2019-06-01T01:22:15.606Z,15.47
2019-06-01T01:23:15.542Z,15.51
2019-06-01T01:24:15.535Z,15.44
2019-06-01T01:25:15.560Z,15.44
2019-06-01T01:26:15.508Z,15.41
2019-06-01T01:27:15.502Z,15.35
2019-06-01T01:28:15.508Z,15.48
2019-06-01T01:29:15.488Z,15.47
2019-06-01T01:30:15.484Z,15.33
2019-06-01T01:31:15.452Z,15.41
2019-06-01T01:32:15.439Z,15.36
2019-06-01T01:33:15.444Z,15.29
2019-06-01T01:34:15.436Z,15.36
2019-06-01T01:35:15.464Z,15.25
2019-06-01T01:36:15.406Z,15.27
2019-06-01T01:37:15.389Z,15.22
2019-06-01T01:38:15.379Z,15.19
2019-06-01T01:39:15.363Z,15.25
2019-06-01T01:40:15.396Z,15.27
2019-06-01T01:41:15.357Z,15.27
2019-06-01T01:42:15.332Z,15.26
2019-06-01T01:43:15.336Z,15.27
2019-06-01T01:44:15.322Z,15.27
2019-06-01T01:45:15.325Z,15.22
2019-06-01T01:46:15.296Z,15.22
2019-06-01T01:47:15.281Z,15.20
2019-06-01T01:48:15.273Z,15.17
2019-06-01T01:49:15.275Z,15.15
2019-06-01T01:50:15.284Z,15.15
2019-06-01T01:51:15.242Z,15.15
2019-06-01T01:52:15.230Z,15.14
2019-06-01T01:53:15.220Z,15.11
2019-06-01T01:54:15.226Z,15.08
2019-06-01T01:55:15.195Z,15.05
2019-06-01T01:56:15.201Z,15.07
2019-06-01T01:57:15.165Z,15.08
2019-06-01T01:58:15.160Z,15.12
2019-06-01T01:59:15.142Z,14.99
2019-06-01T02:00:15.170Z,15.11
2019-06-01T02:01:22.334Z,15.01
2019-06-01T02:02:16.107Z,14.99
2019-06-01T02:03:15.102Z,15.04
2019-06-01T02:04:15.096Z,15.01
2019-06-01T02:05:15.105Z,14.96
2019-06-01T02:06:15.121Z,14.92
2019-06-01T02:07:15.055Z,14.99
2019-06-01T02:08:15.049Z,14.96
2019-06-01T02:09:15.045Z,14.95
2019-06-01T02:10:15.029Z,14.90
2019-06-01T02:11:15.038Z,14.95
2019-06-01T02:12:15.050Z,14.90
2019-06-01T02:13:15.000Z,14.95
2019-06-01T02:14:14.985Z,14.90
2019-06-01T02:15:14.978Z,14.90
2019-06-01T02:16:14.975Z,14.85
2019-06-01T02:17:14.951Z,14.90
2019-06-01T02:18:14.962Z,14.83
2019-06-01T02:19:14.935Z,14.83
2019-06-01T02:20:14.931Z,14.86
2019-06-01T02:21:14.949Z,14.85
2019-06-01T02:22:14.894Z,14.83
2019-06-01T02:23:14.914Z,14.79
2019-06-01T02:24:14.886Z,14.83
2019-06-01T02:25:14.892Z,14.85
2019-06-01T02:26:14.907Z,14.73
2019-06-01T02:27:14.856Z,14.77
2019-06-01T02:28:14.842Z,14.82
2019-06-01T02:29:14.834Z,14.74
2019-06-01T02:30:14.815Z,14.70
2019-06-01T02:31:14.850Z,14.71
2019-06-01T02:32:14.807Z,14.66
2019-06-01T02:33:14.817Z,14.71
2019-06-01T02:34:14.772Z,14.61
2019-06-01T02:35:14.803Z,14.64
2019-06-01T02:36:14.793Z,14.66
2019-06-01T02:37:14.741Z,14.61
2019-06-01T02:38:14.745Z,14.61
2019-06-01T02:39:14.742Z,14.58
2019-06-01T02:40:14.715Z,14.67
2019-06-01T02:41:14.762Z,14.59
2019-06-01T02:42:14.707Z,14.67
2019-06-01T02:43:14.682Z,14.59
2019-06-01T02:44:14.674Z,14.63
2019-06-01T02:45:14.669Z,14.67
2019-06-01T02:46:14.683Z,14.61
2019-06-01T02:47:14.641Z,14.61
2019-06-01T02:48:14.644Z,14.64
2019-06-01T02:49:14.621Z,14.63
2019-06-01T02:50:14.615Z,14.58
2019-06-01T02:51:14.596Z,14.55
2019-06-01T02:52:14.608Z,14.56
2019-06-01T02:53:14.575Z,14.56
2019-06-01T02:54:14.573Z,14.64
2019-06-01T02:55:14.546Z,14.52
2019-06-01T02:56:14.543Z,14.63
2019-06-01T02:57:14.579Z,14.66
2019-06-01T02:58:14.576Z,14.63
2019-06-01T02:59:14.515Z,14.63
2019-06-01T03:00:14.504Z,14.58
2019-06-01T03:01:14.498Z,14.56
2019-06-01T03:02:15.143Z,14.64
2019-06-01T03:03:14.502Z,14.64
2019-06-01T03:04:14.476Z,14.69
2019-06-01T03:05:14.448Z,14.64
2019-06-01T03:06:14.436Z,14.64
2019-06-01T03:07:14.425Z,14.61
2019-06-01T03:08:14.438Z,14.61
2019-06-01T03:09:14.418Z,14.63
2019-06-01T03:10:14.391Z,14.66
2019-06-01T03:11:14.374Z,14.61
2019-06-01T03:12:14.374Z,14.61
2019-06-01T03:13:14.389Z,14.56
2019-06-01T03:14:14.358Z,14.61
2019-06-01T03:15:14.342Z,14.63
2019-06-01T03:16:14.329Z,14.59
2019-06-01T03:17:14.339Z,14.59
2019-06-01T03:18:14.303Z,14.64
2019-06-01T03:19:14.315Z,14.63
2019-06-01T03:20:14.286Z,14.63
2019-06-01T03:21:14.285Z,14.58
2019-06-01T03:22:14.274Z,14.66
2019-06-01T03:23:14.253Z,14.64
2019-06-01T03:24:14.262Z,14.63
2019-06-01T03:25:14.227Z,14.61
2019-06-01T03:26:14.223Z,14.64
2019-06-01T03:27:14.204Z,14.69
2019-06-01T03:28:14.206Z,14.64
2019-06-01T03:29:14.214Z,14.64
2019-06-01T03:30:15.566Z,14.71
2019-06-01T03:31:14.182Z,14.73
2019-06-01T03:32:34.408Z,14.73
2019-06-01T03:33:15.164Z,14.73
2019-06-01T03:34:14.242Z,14.67
2019-06-01T03:35:14.122Z,14.71
2019-06-01T03:36:14.136Z,14.78
2019-06-01T03:37:14.107Z,14.74
2019-06-01T03:38:14.091Z,14.73
2019-06-01T03:39:14.120Z,14.85
2019-06-01T03:40:23.460Z,14.77
2019-06-01T03:41:15.061Z,14.82
2019-06-01T03:42:14.095Z,14.85
2019-06-01T03:43:14.033Z,14.90
2019-06-01T03:44:14.052Z,14.93
2019-06-01T03:45:14.010Z,14.99
2019-06-01T03:46:14.013Z,14.96
2019-06-01T03:47:13.997Z,15.07
2019-06-01T03:48:14.013Z,15.05
2019-06-01T03:49:13.985Z,15.05
2019-06-01T03:50:13.966Z,15.07
2019-06-01T03:51:13.943Z,15.07
2019-06-01T03:52:13.941Z,15.07
2019-06-01T03:53:13.926Z,15.17
2019-06-01T03:54:13.930Z,15.20
2019-06-01T03:55:13.909Z,15.11
2019-06-01T03:56:13.922Z,15.15
2019-06-01T03:57:13.907Z,15.25
2019-06-01T03:58:13.881Z,15.23
2019-06-01T03:59:13.926Z,15.33
2019-06-01T04:00:13.851Z,15.35
2019-06-01T04:01:13.852Z,15.36
2019-06-01T04:02:13.847Z,15.35
2019-06-01T04:03:13.828Z,15.38
2019-06-01T04:04:13.830Z,15.45
2019-06-01T04:05:13.796Z,15.54
2019-06-01T04:06:13.793Z,15.43
2019-06-01T04:07:13.793Z,15.52
2019-06-01T04:08:13.763Z,15.54
2019-06-01T04:09:13.783Z,15.66
2019-06-01T04:10:13.752Z,15.65
2019-06-01T04:11:13.732Z,15.77
2019-06-01T04:12:13.727Z,15.81
2019-06-01T04:13:13.728Z,15.83
2019-06-01T04:14:13.720Z,15.88
2019-06-01T04:15:16.696Z,15.95
2019-06-01T04:16:13.668Z,16.05
2019-06-01T04:17:13.655Z,16.06
2019-06-01T04:18:14.076Z,16.13
2019-06-01T04:19:13.699Z,16.18
2019-06-01T04:20:13.653Z,16.32
2019-06-01T04:21:13.625Z,16.26
2019-06-01T04:22:13.614Z,16.39
2019-06-01T04:23:13.600Z,16.40
2019-06-01T04:24:13.587Z,16.47
2019-06-01T04:25:13.698Z,16.47
2019-06-01T04:26:13.601Z,16.57
2019-06-01T04:27:13.549Z,16.62
2019-06-01T04:28:13.544Z,16.64
2019-06-01T04:29:13.529Z,16.55
2019-06-01T04:30:13.789Z,16.69
2019-06-01T04:31:13.515Z,16.72
2019-06-01T04:32:13.522Z,16.76
2019-06-01T04:33:13.490Z,16.83
2019-06-01T04:34:13.482Z,16.84
2019-06-01T04:35:13.483Z,17.02
2019-06-01T04:36:13.456Z,17.02
2019-06-01T04:37:13.446Z,17.04
2019-06-01T04:38:13.505Z,17.07
2019-06-01T04:39:13.846Z,17.25
2019-06-01T04:40:13.717Z,17.39
2019-06-01T04:41:14.125Z,17.47
2019-06-01T04:42:13.904Z,17.57
2019-06-01T04:43:14.168Z,17.81
2019-06-01T04:44:14.357Z,17.88
2019-06-01T04:45:14.396Z,18.01
2019-06-01T04:46:14.462Z,18.21
2019-06-01T04:47:14.487Z,18.30
2019-06-01T04:48:14.586Z,18.36
2019-06-01T04:49:13.456Z,18.34
2019-06-01T04:50:13.324Z,18.48
2019-06-01T04:51:13.523Z,18.56
2019-06-01T04:52:13.585Z,18.66
2019-06-01T04:53:13.522Z,18.68
2019-06-01T04:54:14.407Z,18.78
2019-06-01T04:55:13.284Z,18.85
2019-06-01T04:56:13.242Z,18.91
2019-06-01T04:57:13.276Z,19.08
2019-06-01T04:58:13.237Z,19.26
2019-06-01T04:59:13.214Z,19.32
2019-06-01T05:00:25.705Z,19.37
2019-06-01T05:01:15.136Z,19.62
2019-06-01T05:02:13.236Z,19.67
2019-06-01T05:03:13.559Z,19.86
2019-06-01T05:04:13.359Z,19.90
2019-06-01T05:05:13.429Z,19.99
2019-06-01T05:06:13.467Z,19.97
2019-06-01T05:07:13.540Z,20.09
2019-06-01T05:08:13.937Z,20.22
2019-06-01T05:09:13.400Z,20.33
2019-06-01T05:10:14.319Z,20.32
2019-06-01T05:11:13.559Z,20.34
2019-06-01T05:12:13.627Z,20.39
2019-06-01T05:13:13.588Z,20.42
2019-06-01T05:14:13.772Z,20.55
2019-06-01T05:15:13.977Z,20.60
2019-06-01T05:16:14.786Z,20.90
2019-06-01T05:17:14.919Z,20.92
2019-06-01T05:18:14.170Z,20.93
2019-06-01T05:19:14.083Z,21.01
2019-06-01T05:20:12.984Z,21.04
2019-06-01T05:21:13.086Z,21.23
2019-06-01T05:22:12.949Z,21.30
2019-06-01T05:23:12.950Z,21.34
2019-06-01T05:24:12.930Z,21.40
2019-06-01T05:25:13.624Z,21.59
2019-06-01T05:26:13.255Z,21.65
2019-06-01T05:27:13.134Z,21.73
2019-06-01T05:28:13.299Z,21.75
2019-06-01T05:29:13.515Z,21.77
2019-06-01T05:30:13.698Z,21.82
2019-06-01T05:31:16.724Z,21.85
2019-06-01T05:32:14.641Z,21.90
2019-06-01T05:33:31.068Z,21.93
2019-06-01T05:34:13.888Z,21.91
2019-06-01T05:35:13.779Z,21.94
2019-06-01T05:36:14.153Z,21.88
2019-06-01T05:37:14.163Z,21.74
2019-06-01T05:38:12.782Z,21.60
2019-06-01T05:39:12.776Z,21.63
2019-06-01T05:40:12.768Z,21.50
2019-06-01T05:41:13.234Z,21.37
2019-06-01T05:42:12.734Z,21.30
2019-06-01T05:43:15.682Z,21.30
2019-06-01T05:44:12.928Z,21.25
2019-06-01T05:45:13.050Z,21.23
2019-06-01T05:46:13.931Z,21.16
2019-06-01T05:47:12.682Z,21.14
2019-06-01T05:48:16.369Z,21.10
2019-06-01T05:49:14.732Z,21.10
2019-06-01T05:50:12.641Z,21.05
2019-06-01T05:51:15.217Z,21.05
2019-06-01T05:52:12.666Z,21.07
2019-06-01T05:53:12.620Z,21.05
2019-06-01T05:54:12.614Z,21.08
2019-06-01T05:55:12.927Z,21.11
2019-06-01T05:56:12.762Z,21.08
2019-06-01T05:57:12.714Z,21.08
2019-06-01T05:58:12.931Z,21.07
2019-06-01T05:59:12.549Z,20.97
2019-06-01T06:00:13.080Z,21.05
2019-06-01T06:01:12.608Z,20.98
2019-06-01T06:02:13.222Z,20.98
2019-06-01T06:03:15.365Z,21.11
2019-06-01T06:04:13.513Z,21.04
2019-06-01T06:05:12.624Z,21.19
2019-06-01T06:06:13.655Z,21.08
2019-06-01T06:07:12.801Z,21.08
2019-06-01T06:08:13.124Z,21.07
2019-06-01T06:09:13.316Z,21.07
2019-06-01T06:10:12.428Z,21.13
2019-06-01T06:11:12.896Z,21.19
2019-06-01T06:12:13.218Z,21.20
2019-06-01T06:13:13.345Z,21.19
2019-06-01T06:14:13.364Z,21.20
2019-06-01T06:15:13.538Z,21.26
2019-06-01T06:16:13.694Z,21.25
2019-06-01T06:17:14.553Z,21.26
2019-06-01T06:18:12.331Z,21.19
2019-06-01T06:19:12.844Z,21.11
2019-06-01T06:20:12.371Z,21.07
2019-06-01T06:21:12.338Z,21.00
2019-06-01T06:22:12.301Z,21.08
2019-06-01T06:23:12.299Z,21.11
2019-06-01T06:24:12.269Z,20.97
2019-06-01T06:25:14.196Z,21.01
2019-06-01T06:26:14.997Z,21.10
2019-06-01T06:27:12.485Z,21.11
2019-06-01T06:28:12.577Z,21.08
2019-06-01T06:29:12.741Z,21.05
2019-06-01T06:30:12.793Z,21.13
2019-06-01T06:31:12.929Z,20.93
2019-06-01T06:32:12.894Z,20.98
2019-06-01T06:33:13.168Z,20.82
2019-06-01T06:34:13.258Z,20.93
2019-06-01T06:35:13.259Z,21.14
2019-06-01T06:36:12.201Z,21.28
2019-06-01T06:37:12.151Z,21.47
2019-06-01T06:38:12.137Z,21.71
2019-06-01T06:39:12.100Z,21.90
2019-06-01T06:40:12.100Z,22.01
2019-06-01T06:41:12.087Z,22.09
2019-06-01T06:42:12.126Z,22.16
2019-06-01T06:43:21.332Z,22.21
2019-06-01T06:44:14.302Z,22.15
2019-06-01T06:45:12.044Z,22.28
2019-06-01T06:46:12.040Z,22.49
2019-06-01T06:47:12.047Z,22.53
2019-06-01T06:48:12.014Z,22.76
2019-06-01T06:49:12.004Z,22.88
2019-06-01T06:50:14.579Z,22.96
2019-06-01T06:51:12.018Z,23.15
2019-06-01T06:52:11.983Z,23.25
2019-06-01T06:53:24.474Z,23.56
2019-06-01T06:54:14.619Z,23.81
2019-06-01T06:55:11.941Z,23.74
2019-06-01T06:56:11.922Z,23.86
2019-06-01T06:57:12.006Z,23.88
2019-06-01T06:58:11.919Z,23.97
2019-06-01T06:59:11.912Z,24.01
2019-06-01T07:00:11.886Z,23.98
2019-06-01T07:01:12.262Z,24.13
2019-06-01T07:02:11.927Z,24.31
2019-06-01T07:03:11.840Z,24.66
2019-06-01T07:04:13.181Z,24.68
2019-06-01T07:05:11.821Z,24.78
2019-06-01T07:06:11.817Z,24.76
2019-06-01T07:07:11.858Z,24.90
2019-06-01T07:08:11.826Z,24.94
2019-06-01T07:09:11.782Z,24.91
2019-06-01T07:10:11.774Z,25.12
2019-06-01T07:11:12.180Z,25.21
2019-06-01T07:12:11.780Z,25.43
2019-06-01T07:13:11.746Z,25.64
2019-06-01T07:14:11.726Z,25.88
2019-06-01T07:15:11.748Z,26.10
2019-06-01T07:16:11.711Z,26.30
2019-06-01T07:17:15.472Z,26.38
2019-06-01T07:18:11.697Z,26.42
2019-06-01T07:19:11.693Z,26.68
2019-06-01T07:20:11.656Z,26.71
2019-06-01T07:21:11.672Z,26.68
2019-06-01T07:22:11.648Z,26.83
2019-06-01T07:23:11.650Z,27.04
2019-06-01T07:24:11.622Z,27.07
2019-06-01T07:25:11.606Z,27.22
2019-06-01T07:26:11.603Z,27.37
2019-06-01T07:27:11.621Z,27.58
2019-06-01T07:28:11.583Z,27.70
2019-06-01T07:29:11.596Z,27.78
2019-06-01T07:30:11.573Z,28.05
2019-06-01T07:31:11.552Z,28.10
2019-06-01T07:32:11.556Z,28.25
2019-06-01T07:33:11.520Z,28.20
2019-06-01T07:34:29.138Z,28.24
2019-06-01T07:35:12.500Z,28.37
2019-06-01T07:36:11.502Z,28.54
2019-06-01T07:37:11.524Z,28.61
2019-06-01T07:38:11.482Z,28.87
2019-06-01T07:39:11.470Z,28.87
2019-06-01T07:40:13.614Z,29.03
2019-06-01T07:41:11.452Z,29.17
2019-06-01T07:42:11.480Z,29.50
2019-06-01T07:43:11.420Z,29.50
2019-06-01T07:44:11.417Z,29.50
2019-06-01T07:45:11.408Z,29.49
2019-06-01T07:46:11.409Z,29.58
2019-06-01T07:47:11.387Z,29.92
2019-06-01T07:48:11.386Z,30.17
2019-06-01T07:49:11.358Z,30.21
2019-06-01T07:50:11.374Z,30.32
2019-06-01T07:51:11.386Z,30.45
2019-06-01T07:52:13.451Z,30.45
2019-06-01T07:53:11.342Z,30.55
2019-06-01T07:54:11.299Z,30.70
2019-06-01T07:55:11.294Z,30.62
2019-06-01T07:56:11.284Z,30.89
2019-06-01T07:57:11.274Z,31.15
2019-06-01T07:58:11.287Z,31.05
2019-06-01T07:59:11.280Z,31.29
2019-06-01T08:00:11.247Z,31.38
2019-06-01T08:01:11.230Z,31.52
2019-06-01T08:02:11.241Z,31.68
2019-06-01T08:03:11.248Z,31.82
2019-06-01T08:04:11.205Z,31.94
2019-06-01T08:05:11.195Z,31.84
2019-06-01T08:06:11.182Z,31.63
2019-06-01T08:07:11.198Z,31.56
2019-06-01T08:08:11.181Z,31.49
2019-06-01T08:09:11.147Z,31.41
2019-06-01T08:10:11.133Z,31.11
2019-06-01T08:11:11.140Z,31.10
2019-06-01T08:12:11.137Z,30.86
2019-06-01T08:13:11.132Z,31.05
2019-06-01T08:14:11.097Z,31.01
2019-06-01T08:15:11.094Z,30.75
2019-06-01T08:16:11.091Z,30.65
2019-06-01T08:17:11.068Z,30.39
2019-06-01T08:18:11.099Z,30.39
2019-06-01T08:19:11.087Z,30.39
2019-06-01T08:20:11.067Z,30.24
2019-06-01T08:21:11.030Z,30.13
2019-06-01T08:22:11.035Z,30.05
2019-06-01T08:23:11.047Z,29.89
2019-06-01T08:24:11.021Z,29.86
2019-06-01T08:25:10.989Z,29.78
2019-06-01T08:26:10.979Z,29.59
2019-06-01T08:27:10.992Z,29.31
2019-06-01T08:28:10.983Z,29.17
2019-06-01T08:29:10.983Z,29.03
2019-06-01T08:30:10.926Z,28.91
2019-06-01T08:31:10.922Z,28.81
2019-06-01T08:32:10.935Z,28.69
2019-06-01T08:33:10.918Z,28.65
2019-06-01T08:34:10.924Z,28.44
2019-06-01T08:35:10.876Z,28.30
2019-06-01T08:36:10.881Z,27.98
2019-06-01T08:37:10.868Z,27.90
2019-06-01T08:38:10.856Z,27.73
2019-06-01T08:39:10.836Z,27.63
2019-06-01T08:40:10.871Z,27.53
2019-06-01T08:41:10.816Z,27.35
2019-06-01T08:42:10.807Z,27.30
2019-06-01T08:43:10.826Z,27.20
2019-06-01T08:44:10.817Z,27.20
2019-06-01T08:45:10.771Z,27.10
2019-06-01T08:46:10.773Z,27.10
2019-06-01T08:47:10.759Z,27.03
2019-06-01T08:48:10.739Z,26.95
2019-06-01T08:49:10.793Z,26.76
2019-06-01T08:50:10.713Z,26.75
2019-06-01T08:51:10.705Z,26.80
2019-06-01T08:52:10.719Z,26.83
2019-06-01T08:53:10.700Z,26.83
2019-06-01T08:54:10.720Z,26.75
2019-06-01T08:55:10.667Z,26.73
2019-06-01T08:56:10.684Z,26.65
2019-06-01T08:57:10.658Z,26.58
2019-06-01T08:58:10.640Z,26.53
2019-06-01T08:59:10.702Z,26.45
2019-06-01T09:00:10.624Z,26.42
2019-06-01T09:01:10.602Z,26.41
2019-06-01T09:02:10.632Z,26.45
2019-06-01T09:03:10.584Z,26.51
2019-06-01T09:04:10.598Z,26.42
2019-06-01T09:05:23.382Z,26.33
2019-06-01T09:06:11.552Z,26.27
2019-06-01T09:07:10.541Z,26.19
2019-06-01T09:08:10.568Z,26.08
2019-06-01T09:09:11.942Z,26.12
2019-06-01T09:10:10.513Z,26.08
2019-06-01T09:11:10.508Z,26.21
2019-06-01T09:12:10.541Z,26.24
2019-06-01T09:13:10.476Z,26.15
2019-06-01T09:14:10.490Z,26.16
2019-06-01T09:15:10.453Z,26.23
2019-06-01T09:16:10.451Z,26.26
2019-06-01T09:17:10.449Z,26.26
2019-06-01T09:18:10.440Z,26.07
2019-06-01T09:19:11.579Z,26.16
2019-06-01T09:20:10.411Z,26.21
2019-06-01T09:21:10.387Z,26.33
2019-06-01T09:22:10.383Z,26.26
2019-06-01T09:23:10.381Z,26.36
2019-06-01T09:24:10.374Z,26.39
2019-06-01T09:25:10.363Z,26.36
2019-06-01T09:26:10.408Z,26.27
2019-06-01T09:27:10.341Z,26.31
2019-06-01T09:28:10.319Z,26.42
2019-06-01T09:29:10.322Z,26.48
2019-06-01T09:30:10.315Z,26.52
2019-06-01T09:31:10.278Z,26.68
2019-06-01T09:32:11.370Z,26.61
2019-06-01T09:33:10.335Z,26.73
2019-06-01T09:34:10.271Z,26.82
2019-06-01T09:35:10.258Z,26.90
2019-06-01T09:36:10.231Z,26.93
2019-06-01T09:37:10.225Z,26.90
2019-06-01T09:38:10.213Z,26.97
2019-06-01T09:39:10.211Z,26.94
2019-06-01T09:40:10.216Z,27.00
2019-06-01T09:41:10.193Z,27.08
2019-06-01T09:42:10.173Z,27.27
2019-06-01T09:43:10.167Z,27.37
2019-06-01T09:44:10.137Z,27.19
2019-06-01T09:45:10.173Z,27.30
2019-06-01T09:46:10.134Z,27.32
2019-06-01T09:47:10.116Z,27.27
2019-06-01T09:48:10.098Z,27.40
2019-06-01T09:49:10.095Z,27.32
2019-06-01T09:50:10.091Z,27.31
2019-06-01T09:51:10.105Z,27.30
2019-06-01T09:52:12.568Z,27.40
2019-06-01T09:53:10.104Z,27.31
2019-06-01T09:54:10.059Z,27.35
2019-06-01T09:55:10.040Z,27.40
2019-06-01T09:56:10.050Z,27.42
2019-06-01T09:57:10.007Z,27.45
2019-06-01T09:58:10.005Z,27.57
2019-06-01T09:59:09.998Z,27.50
2019-06-01T10:00:09.972Z,27.57
2019-06-01T10:01:10.004Z,27.68
2019-06-01T10:02:09.969Z,27.79
2019-06-01T10:03:09.955Z,27.91
2019-06-01T10:04:10.015Z,27.93
2019-06-01T10:05:09.946Z,27.88
2019-06-01T10:06:13.825Z,27.97
2019-06-01T10:07:09.917Z,27.95
2019-06-01T10:08:09.891Z,28.06
2019-06-01T10:09:09.893Z,28.22
2019-06-01T10:10:09.931Z,28.25
2019-06-01T10:11:09.872Z,28.44
2019-06-01T10:12:09.887Z,28.24
2019-06-01T10:13:09.842Z,28.37
2019-06-01T10:14:09.841Z,28.66
2019-06-01T10:15:09.816Z,28.93
2019-06-01T10:16:09.827Z,29.25
2019-06-01T10:17:09.811Z,29.40
2019-06-01T10:18:09.805Z,29.80
2019-06-01T10:19:09.774Z,30.07
2019-06-01T10:20:09.763Z,30.30
2019-06-01T10:21:09.760Z,30.67
2019-06-01T10:22:09.739Z,31.22
2019-06-01T10:23:09.770Z,31.22
2019-06-01T10:24:09.716Z,31.38
2019-06-01T10:25:09.713Z,31.87
2019-06-01T10:26:09.739Z,32.06
2019-06-01T10:27:09.686Z,32.01
2019-06-01T10:28:09.685Z,32.28
2019-06-01T10:29:09.713Z,32.36
2019-06-01T10:30:09.657Z,32.17
2019-06-01T10:31:09.657Z,31.95
2019-06-01T10:32:09.634Z,32.06
2019-06-01T10:33:09.646Z,32.08
2019-06-01T10:34:09.634Z,31.82
2019-06-01T10:35:09.615Z,31.81
2019-06-01T10:36:19.964Z,32.14
2019-06-01T10:37:10.622Z,32.05
2019-06-01T10:38:09.574Z,32.31
2019-06-01T10:39:09.575Z,32.24
2019-06-01T10:40:09.549Z,32.46
2019-06-01T10:41:09.595Z,32.42
2019-06-01T10:42:09.536Z,32.50
2019-06-01T10:43:09.518Z,32.43
2019-06-01T10:44:09.540Z,32.43
2019-06-01T10:45:09.508Z,32.61
2019-06-01T10:46:09.520Z,32.55
2019-06-01T10:47:09.510Z,32.68
2019-06-01T10:48:09.479Z,32.55
2019-06-01T10:49:09.486Z,32.60
2019-06-01T10:50:09.480Z,32.46
2019-06-01T10:51:09.455Z,32.13
2019-06-01T10:52:09.443Z,31.95
2019-06-01T10:53:09.458Z,31.97
2019-06-01T10:54:09.414Z,32.02
2019-06-01T10:55:09.425Z,31.91
2019-06-01T10:56:09.390Z,32.20
2019-06-01T10:57:09.376Z,32.32
2019-06-01T10:58:09.397Z,32.61
2019-06-01T10:59:09.374Z,33.13
2019-06-01T11:00:09.375Z,33.51
2019-06-01T11:01:09.334Z,33.76
2019-06-01T11:02:09.342Z,34.01
2019-06-01T11:03:09.346Z,34.35
2019-06-01T11:04:09.305Z,34.75
2019-06-01T11:05:09.321Z,35.04
2019-06-01T11:06:09.296Z,35.53
2019-06-01T11:07:09.278Z,35.02
2019-06-01T11:08:09.275Z,34.75
2019-06-01T11:09:09.291Z,34.86
2019-06-01T11:10:09.297Z,34.72
2019-06-01T11:11:09.251Z,35.29
2019-06-01T11:12:09.240Z,35.91
2019-06-01T11:13:09.226Z,36.60
2019-06-01T11:14:09.217Z,37.13
2019-06-01T11:15:09.267Z,36.86
2019-06-01T11:16:09.187Z,37.22
2019-06-01T11:17:09.207Z,37.61
2019-06-01T11:18:09.171Z,37.76
2019-06-01T11:19:09.174Z,38.06
2019-06-01T11:20:09.191Z,38.59
2019-06-01T11:21:09.154Z,39.09
2019-06-01T11:22:09.185Z,38.36
2019-06-01T11:23:09.133Z,37.89
2019-06-01T11:24:09.117Z,37.74
2019-06-01T11:25:09.129Z,37.49
2019-06-01T11:26:09.095Z,37.60
2019-06-01T11:27:09.111Z,37.88
2019-06-01T11:28:09.080Z,38.32
2019-06-01T11:29:09.067Z,38.50
2019-06-01T11:30:09.102Z,38.13
2019-06-01T11:31:09.053Z,38.16
2019-06-01T11:32:09.080Z,37.91
2019-06-01T11:33:09.025Z,37.77
2019-06-01T11:34:09.024Z,38.18
2019-06-01T11:35:09.021Z,38.52
2019-06-01T11:36:09.007Z,38.81
2019-06-01T11:37:09.030Z,39.30
2019-06-01T11:38:08.982Z,39.79
2019-06-01T11:39:08.964Z,39.38
2019-06-01T11:40:08.992Z,38.73
2019-06-01T11:41:08.963Z,38.25
2019-06-01T11:42:08.942Z,38.33
2019-06-01T11:43:08.945Z,38.32
2019-06-01T11:44:08.931Z,39.02
2019-06-01T11:45:08.990Z,39.40
2019-06-01T11:46:08.905Z,40.08
2019-06-01T11:47:08.899Z,40.55
2019-06-01T11:48:08.875Z,40.29
2019-06-01T11:49:08.878Z,40.60
2019-06-01T11:50:08.867Z,40.82
2019-06-01T11:51:08.869Z,41.09
2019-06-01T11:52:08.850Z,40.87
2019-06-01T11:53:08.839Z,41.12
2019-06-01T11:54:08.821Z,41.38
2019-06-01T11:55:08.826Z,41.54
2019-06-01T11:56:08.826Z,41.39
2019-06-01T11:57:08.792Z,41.71
2019-06-01T11:58:08.815Z,41.55
2019-06-01T11:59:08.802Z,41.17
2019-06-01T12:00:08.796Z,41.39
2019-06-01T12:01:08.762Z,41.68
2019-06-01T12:02:08.776Z,41.84
2019-06-01T12:03:08.738Z,42.00
2019-06-01T12:04:08.728Z,41.66
2019-06-01T12:05:08.797Z,41.18
2019-06-01T12:06:08.708Z,40.68
2019-06-01T12:07:17.360Z,40.13
2019-06-01T12:08:09.719Z,40.45
2019-06-01T12:09:08.696Z,40.87
2019-06-01T12:10:08.694Z,41.33
2019-06-01T12:11:08.677Z,42.01
2019-06-01T12:12:08.680Z,41.88
2019-06-01T12:13:08.665Z,42.07
2019-06-01T12:14:08.641Z,41.73
2019-06-01T12:15:08.638Z,41.96
2019-06-01T12:16:08.623Z,42.00
2019-06-01T12:17:08.681Z,42.37
2019-06-01T12:18:08.595Z,42.65
2019-06-01T12:19:08.599Z,42.93
2019-06-01T12:20:08.637Z,43.03
2019-06-01T12:21:08.576Z,42.83
2019-06-01T12:22:08.605Z,42.84
2019-06-01T12:23:08.547Z,43.16
2019-06-01T12:24:08.587Z,43.12
2019-06-01T12:25:08.532Z,43.51
2019-06-01T12:26:08.527Z,43.86
2019-06-01T12:27:08.581Z,43.86
2019-06-01T12:28:08.511Z,43.90
2019-06-01T12:29:08.502Z,44.15
2019-06-01T12:30:08.503Z,44.10
2019-06-01T12:31:08.477Z,44.02
2019-06-01T12:32:08.497Z,43.62
2019-06-01T12:33:08.507Z,43.49
2019-06-01T12:34:08.461Z,43.20
2019-06-01T12:35:08.455Z,43.26
2019-06-01T12:36:08.437Z,43.17
2019-06-01T12:37:08.451Z,43.23
2019-06-01T12:38:08.415Z,43.16
2019-06-01T12:39:08.432Z,43.28
2019-06-01T12:40:08.416Z,43.49
2019-06-01T12:41:08.391Z,43.15
2019-06-01T12:42:08.414Z,42.44
2019-06-01T12:43:08.380Z,42.75
2019-06-01T12:44:08.375Z,43.42
2019-06-01T12:45:08.357Z,44.02
2019-06-01T12:46:08.360Z,44.54
2019-06-01T12:47:08.333Z,44.96
2019-06-01T12:48:08.360Z,44.22
2019-06-01T12:49:08.344Z,44.31
2019-06-01T12:50:08.322Z,43.86
2019-06-01T12:51:08.373Z,43.97
2019-06-01T12:52:08.307Z,44.22